createdAt,value
2023-03-15T12:08:40.584Z,95.70
2023-03-15T12:11:31.669Z,95.60
2023-03-15T12:13:58.356Z,94.10
2023-03-15T12:16:42.059Z,94.20
2023-03-15T12:19:14.523Z,94.20
2023-03-15T12:21:45.956Z,93.70
2023-03-15T12:24:37.105Z,92.80
2023-03-15T12:27:20.723Z,90.20
2023-03-15T12:29:48.594Z,90.10
2023-03-15T12:32:17.126Z,91.20
2023-03-15T12:34:54.515Z,90.90
2023-03-15T12:37:22.551Z,91.50
2023-03-15T12:40:01.723Z,91.50
2023-03-15T12:42:31.586Z,91.40
2023-03-15T12:45:17.192Z,88.00
2023-03-15T12:47:53.500Z,85.90
2023-03-15T12:50:53.040Z,83.10
2023-03-15T12:53:38.955Z,82.70
2023-03-15T12:56:34.300Z,82.40
2023-03-15T12:59:18.756Z,82.30
2023-03-15T13:01:46.058Z,81.80
2023-03-15T13:04:14.056Z,82.30
2023-03-15T13:06:49.198Z,85.40
2023-03-15T13:09:32.454Z,88.60
2023-03-15T13:12:11.958Z,91.50
2023-03-15T13:14:46.589Z,93.10
2023-03-15T13:17:51.333Z,94.20
2023-03-15T13:20:48.412Z,95.10
2023-03-15T13:23:18.191Z,95.30
2023-03-15T13:25:51.007Z,95.20
2023-03-15T13:28:27.358Z,94.80
2023-03-15T13:30:55.864Z,94.70
2023-03-15T13:33:27.663Z,93.60
2023-03-15T13:36:03.777Z,92.60
2023-03-15T13:38:33.167Z,91.20
2023-03-15T13:41:03.558Z,89.70
2023-03-15T13:43:39.579Z,88.90
2023-03-15T13:46:06.495Z,89.30
2023-03-15T13:48:36.815Z,89.10
2023-03-15T13:51:12.277Z,88.80
2023-03-15T13:53:49.556Z,88.50
2023-03-15T13:56:20.004Z,86.30
2023-03-15T13:58:47.631Z,86.30
2023-03-15T14:01:15.514Z,86.20
2023-03-15T14:03:44.022Z,86.10
2023-03-15T14:06:19.895Z,86.50
2023-03-15T14:08:46.783Z,86.30
2023-03-15T14:11:33.139Z,87.30
2023-03-15T14:14:02.670Z,87.70
2023-03-15T14:17:03.038Z,89.10
2023-03-15T14:19:32.446Z,88.40
2023-03-15T14:22:02.038Z,90.90
2023-03-15T14:24:40.177Z,90.30
2023-03-15T14:27:28.444Z,89.00
2023-03-15T14:29:58.307Z,87.60
2023-03-15T14:32:36.414Z,86.80
2023-03-15T14:38:53.944Z,88.20
2023-03-15T14:41:46.056Z,89.60
2023-03-15T14:44:13.435Z,89.90
2023-03-15T14:46:40.249Z,89.80
2023-03-15T14:49:07.157Z,90.50
2023-03-15T14:51:33.975Z,90.60
2023-03-15T14:54:01.717Z,89.90
2023-03-15T14:56:28.610Z,90.30
2023-03-15T14:58:55.597Z,89.10
2023-03-15T15:01:27.165Z,89.60
2023-03-15T15:04:01.805Z,88.70
2023-03-15T15:06:31.966Z,89.60
2023-03-15T15:09:00.104Z,89.70
2023-03-15T15:11:27.090Z,89.70
2023-03-15T15:13:54.066Z,89.60
2023-03-15T15:16:20.950Z,89.20
2023-03-15T15:18:47.794Z,89.10
2023-03-15T15:21:16.780Z,88.20
2023-03-15T15:23:57.346Z,86.90
2023-03-15T15:26:27.870Z,87.20
2023-03-15T15:28:54.786Z,87.10
2023-03-15T15:31:23.883Z,86.80
2023-03-15T15:33:51.961Z,87.40
2023-03-15T15:36:32.585Z,86.80
2023-03-15T15:39:06.453Z,85.30
2023-03-15T15:41:33.780Z,82.40
2023-03-15T15:44:01.024Z,81.90
2023-03-15T15:46:28.056Z,82.40
2023-03-15T15:48:54.956Z,81.40
2023-03-15T15:51:34.877Z,82.00
2023-03-15T15:54:02.299Z,82.50
2023-03-15T15:56:34.658Z,82.50
2023-03-15T15:59:04.396Z,83.20
2023-03-15T16:01:31.836Z,82.70
2023-03-15T16:04:00.214Z,82.70
2023-03-15T16:06:27.339Z,83.50
2023-03-15T16:08:54.394Z,83.60
2023-03-15T16:11:21.674Z,83.80
2023-03-15T16:13:51.808Z,83.60
2023-03-15T16:16:18.748Z,84.00
2023-03-15T16:18:45.742Z,83.60
2023-03-15T16:21:38.631Z,83.20
2023-03-15T16:24:14.393Z,83.30
2023-03-15T16:26:41.542Z,82.10
2023-03-15T16:29:24.472Z,82.00
2023-03-15T16:31:51.386Z,82.50
2023-03-15T16:34:19.261Z,82.90
2023-03-15T16:36:49.365Z,82.60
2023-03-15T16:39:17.018Z,82.70
2023-03-15T16:41:43.962Z,83.00
2023-03-15T16:44:26.672Z,83.20
2023-03-15T16:46:53.620Z,83.70
2023-03-15T16:49:21.047Z,84.20
2023-03-15T16:51:51.402Z,83.70
2023-03-15T16:54:34.408Z,84.00
2023-03-15T16:57:15.973Z,84.80
2023-03-15T16:59:42.781Z,85.30
2023-03-15T17:02:36.055Z,84.90
2023-03-15T17:05:02.874Z,85.30
2023-03-15T17:07:35.116Z,85.60
2023-03-15T17:10:19.546Z,85.90
2023-03-15T17:12:46.441Z,86.00
2023-03-15T17:15:13.606Z,86.40
2023-03-15T17:17:40.433Z,86.90
2023-03-15T17:20:12.487Z,87.20
2023-03-15T17:22:43.162Z,87.50
2023-03-15T17:25:10.611Z,87.70
2023-03-15T17:27:40.676Z,88.10
2023-03-15T17:30:26.166Z,88.10
2023-03-15T17:32:54.083Z,88.40
2023-03-15T17:35:22.736Z,88.60
2023-03-15T17:37:50.539Z,88.50
2023-03-15T17:40:18.751Z,88.50
2023-03-15T17:42:45.625Z,88.80
2023-03-15T17:45:17.792Z,89.00
2023-03-15T17:47:44.663Z,89.30
2023-03-15T17:50:12.124Z,89.50
2023-03-15T17:52:39.858Z,89.60
2023-03-15T17:55:08.951Z,90.00
2023-03-15T17:57:38.359Z,90.50
2023-03-15T18:00:08.326Z,90.60
2023-03-15T18:02:35.596Z,90.90
2023-03-15T18:05:06.823Z,90.80
2023-03-15T18:07:34.211Z,90.90
2023-03-15T18:10:01.070Z,91.10
2023-03-15T18:12:27.890Z,91.30
2023-03-15T18:14:54.694Z,91.60
2023-03-15T18:17:21.613Z,91.60
2023-03-15T18:19:48.501Z,91.50
2023-03-15T18:22:16.938Z,91.60
2023-03-15T18:24:46.044Z,91.50
2023-03-15T18:27:13.848Z,91.60
2023-03-15T18:29:40.651Z,91.90
2023-03-15T18:32:07.681Z,92.10
2023-03-15T18:34:34.829Z,92.40
2023-03-15T18:37:01.727Z,92.80
2023-03-15T18:39:31.901Z,93.00
2023-03-15T18:41:58.803Z,93.30
2023-03-15T18:44:25.638Z,93.50
2023-03-15T18:46:53.880Z,94.00
2023-03-15T18:49:20.993Z,94.40
2023-03-15T18:51:47.800Z,94.50
2023-03-15T18:54:16.539Z,94.60
2023-03-15T18:56:43.562Z,94.90
2023-03-15T18:59:10.481Z,95.30
2023-03-15T19:01:38.251Z,95.30
2023-03-15T19:04:05.431Z,95.40
2023-03-15T19:06:32.330Z,95.60
2023-03-15T19:08:59.450Z,95.70
2023-03-15T19:11:27.006Z,95.70
2023-03-15T19:13:53.922Z,95.70
2023-03-15T19:16:21.477Z,95.70
2023-03-15T19:18:49.600Z,95.70
2023-03-15T19:21:18.620Z,95.70
2023-03-15T19:23:46.179Z,95.70
2023-03-15T19:26:15.788Z,95.70
2023-03-15T19:28:42.776Z,95.70
2023-03-15T19:31:11.399Z,95.70
2023-03-15T19:33:38.584Z,95.70
2023-03-15T19:36:05.767Z,95.70
2023-03-15T19:38:33.145Z,95.70
2023-03-15T20:55:44.746Z,95.70
2023-03-15T20:58:11.555Z,95.70
2023-03-15T21:00:40.968Z,95.70
2023-03-15T21:03:10.773Z,95.70
2023-03-15T21:05:38.783Z,95.70
2023-03-15T21:08:05.814Z,95.70
2023-03-15T21:10:32.764Z,95.70
2023-03-15T21:12:59.695Z,95.70
2023-03-15T21:15:26.518Z,95.70
2023-03-15T21:17:53.338Z,95.70
2023-03-15T21:20:20.208Z,95.70
2023-03-15T21:22:47.084Z,95.70
2023-03-15T21:25:13.940Z,95.70
2023-03-15T21:27:40.982Z,95.70
2023-03-15T21:30:08.674Z,95.70
2023-03-15T21:32:35.900Z,95.70
2023-03-15T21:35:03.112Z,95.70
2023-03-15T21:37:29.950Z,95.70
2023-03-15T21:39:56.727Z,95.70
2023-03-15T21:42:24.764Z,95.70
2023-03-15T21:44:53.717Z,95.70
2023-03-15T21:47:21.666Z,95.70
2023-03-15T21:49:48.497Z,95.70
2023-03-15T21:52:16.249Z,95.70
2023-03-15T21:54:44.769Z,95.70
2023-03-15T21:57:15.014Z,95.70
2023-03-15T21:59:41.892Z,95.70
2023-03-15T22:02:10.715Z,95.70
2023-03-15T22:04:37.608Z,95.70
2023-03-15T22:07:04.425Z,95.70
2023-03-15T22:09:31.352Z,95.70
2023-03-15T22:11:58.143Z,95.70
2023-03-15T22:14:25.039Z,95.70
2023-03-15T22:16:52.077Z,95.70
2023-03-15T22:19:18.954Z,95.70
2023-03-15T22:21:45.760Z,95.70
2023-03-15T22:24:12.684Z,95.70
2023-03-15T22:26:39.522Z,95.70
2023-03-15T22:29:06.320Z,95.70
2023-03-15T22:31:33.428Z,95.70
2023-03-15T22:34:00.238Z,95.70
2023-03-15T22:36:27.186Z,95.70
2023-03-15T22:38:54.044Z,95.70
2023-03-15T22:41:20.951Z,95.70
2023-03-15T22:43:47.893Z,95.70
2023-03-15T22:46:14.735Z,95.70
2023-03-15T22:48:41.659Z,95.70
2023-03-15T22:51:09.810Z,95.70
2023-03-15T22:53:36.702Z,95.70
2023-03-15T22:56:04.953Z,95.70
2023-03-15T22:58:32.061Z,95.70
2023-03-15T23:00:59.505Z,95.70
2023-03-15T23:03:26.686Z,95.70
2023-03-15T23:05:54.882Z,95.70
2023-03-15T23:08:24.383Z,95.70
2023-03-15T23:10:51.240Z,95.70
2023-03-15T23:13:18.337Z,95.70
2023-03-15T23:15:45.259Z,95.70
2023-03-15T23:18:14.553Z,95.70
2023-03-15T23:20:42.254Z,95.70
2023-03-15T23:23:09.127Z,95.70
2023-03-15T23:25:39.785Z,95.70
2023-03-15T23:28:07.490Z,95.70
2023-03-15T23:30:36.000Z,95.70
2023-03-15T23:33:03.916Z,95.70
2023-03-15T23:35:31.844Z,95.70
2023-03-15T23:37:58.885Z,95.70
2023-03-15T23:40:26.260Z,95.70
2023-03-15T23:42:59.144Z,95.70
2023-03-15T23:45:27.953Z,95.70
2023-03-15T23:47:55.010Z,95.70
2023-03-15T23:50:25.894Z,95.70
2023-03-15T23:52:54.050Z,95.70
2023-03-15T23:55:21.317Z,95.70
2023-03-15T23:57:48.214Z,95.70
